sensor_id;sensor_type;location;lat;lon;timestamp;P1;durP1;ratioP1;P2;durP2;ratioP2
52786;SDS011;38661;53.152;5.846;2023-07-09T00:00:49;14.65;;;10.02;;
52786;SDS011;38661;53.152;5.846;2023-07-09T00:03:16;11.77;;;10.05;;
52786;SDS011;38661;53.152;5.846;2023-07-09T00:05:43;13.95;;;9.60;;
52786;SDS011;38661;53.152;5.846;2023-07-09T00:08:27;10.80;;;9.35;;
52786;SDS011;38661;53.152;5.846;2023-07-09T00:10:55;14.77;;;11.32;;
52786;SDS011;38661;53.152;5.846;2023-07-09T00:13:22;13.90;;;11.43;;
52786;SDS011;38661;53.152;5.846;2023-07-09T00:15:49;15.40;;;11.93;;
52786;SDS011;38661;53.152;5.846;2023-07-09T00:18:15;15.15;;;11.35;;
52786;SDS011;38661;53.152;5.846;2023-07-09T00:20:41;15.38;;;11.02;;
52786;SDS011;38661;53.152;5.846;2023-07-09T00:23:09;12.05;;;9.63;;
52786;SDS011;38661;53.152;5.846;2023-07-09T00:25:39;12.38;;;10.43;;
52786;SDS011;38661;53.152;5.846;2023-07-09T00:28:18;12.07;;;10.27;;
52786;SDS011;38661;53.152;5.846;2023-07-09T00:30:45;11.73;;;10.50;;
52786;SDS011;38661;53.152;5.846;2023-07-09T00:33:13;12.15;;;9.65;;
52786;SDS011;38661;53.152;5.846;2023-07-09T00:35:41;23.23;;;10.30;;
52786;SDS011;38661;53.152;5.846;2023-07-09T00:38:14;13.05;;;9.70;;
52786;SDS011;38661;53.152;5.846;2023-07-09T00:40:47;12.23;;;8.93;;
52786;SDS011;38661;53.152;5.846;2023-07-09T00:43:21;14.32;;;10.65;;
52786;SDS011;38661;53.152;5.846;2023-07-09T00:46:07;12.77;;;10.55;;
52786;SDS011;38661;53.152;5.846;2023-07-09T00:48:49;12.82;;;9.98;;
52786;SDS011;38661;53.152;5.846;2023-07-09T00:51:19;11.10;;;9.48;;
52786;SDS011;38661;53.152;5.846;2023-07-09T00:53:48;11.90;;;10.68;;
52786;SDS011;38661;53.152;5.846;2023-07-09T00:56:18;12.73;;;9.90;;
52786;SDS011;38661;53.152;5.846;2023-07-09T00:58:53;11.65;;;10.43;;
52786;SDS011;38661;53.152;5.846;2023-07-09T01:01:20;11.93;;;10.32;;
52786;SDS011;38661;53.152;5.846;2023-07-09T01:03:47;11.13;;;9.80;;
52786;SDS011;38661;53.152;5.846;2023-07-09T01:06:18;13.05;;;9.95;;
52786;SDS011;38661;53.152;5.846;2023-07-09T01:08:50;11.50;;;9.85;;
52786;SDS011;38661;53.152;5.846;2023-07-09T01:11:20;12.90;;;10.25;;
52786;SDS011;38661;53.152;5.846;2023-07-09T01:13:51;12.95;;;10.35;;
52786;SDS011;38661;53.152;5.846;2023-07-09T01:16:19;11.57;;;10.30;;
52786;SDS011;38661;53.152;5.846;2023-07-09T01:18:49;11.70;;;10.27;;
52786;SDS011;38661;53.152;5.846;2023-07-09T01:21:15;15.63;;;9.73;;
52786;SDS011;38661;53.152;5.846;2023-07-09T01:23:42;10.80;;;9.48;;
52786;SDS011;38661;53.152;5.846;2023-07-09T01:26:15;11.10;;;9.63;;
52786;SDS011;38661;53.152;5.846;2023-07-09T01:28:44;15.73;;;9.98;;
52786;SDS011;38661;53.152;5.846;2023-07-09T01:31:11;11.48;;;9.50;;
52786;SDS011;38661;53.152;5.846;2023-07-09T01:33:40;10.50;;;9.40;;
52786;SDS011;38661;53.152;5.846;2023-07-09T01:36:07;13.65;;;9.40;;
52786;SDS011;38661;53.152;5.846;2023-07-09T01:38:35;11.85;;;10.32;;
52786;SDS011;38661;53.152;5.846;2023-07-09T01:41:01;11.70;;;9.65;;
52786;SDS011;38661;53.152;5.846;2023-07-09T01:43:27;12.18;;;9.50;;
52786;SDS011;38661;53.152;5.846;2023-07-09T01:45:53;12.30;;;9.50;;
52786;SDS011;38661;53.152;5.846;2023-07-09T01:48:23;13.93;;;10.35;;
52786;SDS011;38661;53.152;5.846;2023-07-09T01:50:50;11.88;;;9.98;;
52786;SDS011;38661;53.152;5.846;2023-07-09T01:53:17;11.13;;;9.20;;
52786;SDS011;38661;53.152;5.846;2023-07-09T01:55:48;11.05;;;9.70;;
52786;SDS011;38661;53.152;5.846;2023-07-09T01:58:19;11.30;;;10.15;;
52786;SDS011;38661;53.152;5.846;2023-07-09T02:00:50;13.38;;;10.32;;
52786;SDS011;38661;53.152;5.846;2023-07-09T02:03:16;11.88;;;9.82;;
52786;SDS011;38661;53.152;5.846;2023-07-09T02:05:42;11.68;;;10.20;;
52786;SDS011;38661;53.152;5.846;2023-07-09T02:08:08;13.90;;;10.60;;
52786;SDS011;38661;53.152;5.846;2023-07-09T02:10:34;18.98;;;10.07;;
52786;SDS011;38661;53.152;5.846;2023-07-09T02:13:00;13.35;;;10.35;;
52786;SDS011;38661;53.152;5.846;2023-07-09T02:15:26;14.38;;;10.48;;
52786;SDS011;38661;53.152;5.846;2023-07-09T02:17:52;12.07;;;9.57;;
52786;SDS011;38661;53.152;5.846;2023-07-09T02:20:17;10.77;;;9.77;;
52786;SDS011;38661;53.152;5.846;2023-07-09T02:22:44;16.83;;;11.30;;
52786;SDS011;38661;53.152;5.846;2023-07-09T02:25:10;12.15;;;10.57;;
52786;SDS011;38661;53.152;5.846;2023-07-09T02:27:36;15.07;;;11.93;;
52786;SDS011;38661;53.152;5.846;2023-07-09T02:30:02;13.27;;;10.73;;
52786;SDS011;38661;53.152;5.846;2023-07-09T02:32:30;13.27;;;11.88;;
52786;SDS011;38661;53.152;5.846;2023-07-09T02:34:55;13.48;;;12.00;;
52786;SDS011;38661;53.152;5.846;2023-07-09T02:37:23;13.32;;;11.30;;
52786;SDS011;38661;53.152;5.846;2023-07-09T02:39:50;16.48;;;11.82;;
52786;SDS011;38661;53.152;5.846;2023-07-09T02:42:17;14.10;;;11.23;;
52786;SDS011;38661;53.152;5.846;2023-07-09T02:44:44;16.73;;;11.90;;
52786;SDS011;38661;53.152;5.846;2023-07-09T02:47:10;13.13;;;11.15;;
52786;SDS011;38661;53.152;5.846;2023-07-09T02:49:37;13.25;;;11.27;;
52786;SDS011;38661;53.152;5.846;2023-07-09T02:52:03;12.07;;;10.60;;
52786;SDS011;38661;53.152;5.846;2023-07-09T02:54:29;15.68;;;10.80;;
52786;SDS011;38661;53.152;5.846;2023-07-09T02:56:55;12.30;;;11.07;;
52786;SDS011;38661;53.152;5.846;2023-07-09T02:59:21;13.30;;;10.27;;
52786;SDS011;38661;53.152;5.846;2023-07-09T03:01:47;14.15;;;11.40;;
52786;SDS011;38661;53.152;5.846;2023-07-09T03:04:13;12.32;;;11.07;;
52786;SDS011;38661;53.152;5.846;2023-07-09T03:06:39;13.82;;;11.85;;
52786;SDS011;38661;53.152;5.846;2023-07-09T03:09:05;18.75;;;12.82;;
52786;SDS011;38661;53.152;5.846;2023-07-09T03:11:32;14.45;;;11.57;;
52786;SDS011;38661;53.152;5.846;2023-07-09T03:14:00;15.07;;;11.75;;
52786;SDS011;38661;53.152;5.846;2023-07-09T03:16:27;13.52;;;12.13;;
52786;SDS011;38661;53.152;5.846;2023-07-09T03:18:54;12.50;;;11.27;;
52786;SDS011;38661;53.152;5.846;2023-07-09T03:21:21;13.02;;;11.27;;
52786;SDS011;38661;53.152;5.846;2023-07-09T03:23:47;12.93;;;11.50;;
52786;SDS011;38661;53.152;5.846;2023-07-09T03:26:13;13.43;;;11.30;;
52786;SDS011;38661;53.152;5.846;2023-07-09T03:28:40;13.80;;;11.10;;
52786;SDS011;38661;53.152;5.846;2023-07-09T03:31:06;14.60;;;12.57;;
52786;SDS011;38661;53.152;5.846;2023-07-09T03:33:32;14.63;;;12.05;;
52786;SDS011;38661;53.152;5.846;2023-07-09T03:35:58;13.55;;;12.15;;
52786;SDS011;38661;53.152;5.846;2023-07-09T03:38:24;15.07;;;13.05;;
52786;SDS011;38661;53.152;5.846;2023-07-09T03:40:53;14.52;;;12.88;;
52786;SDS011;38661;53.152;5.846;2023-07-09T03:43:19;14.32;;;12.30;;
52786;SDS011;38661;53.152;5.846;2023-07-09T03:45:46;14.35;;;12.82;;
52786;SDS011;38661;53.152;5.846;2023-07-09T03:48:13;17.73;;;13.60;;
52786;SDS011;38661;53.152;5.846;2023-07-09T03:50:40;14.15;;;12.65;;
52786;SDS011;38661;53.152;5.846;2023-07-09T03:53:08;14.13;;;12.60;;
52786;SDS011;38661;53.152;5.846;2023-07-09T03:55:34;13.57;;;12.18;;
52786;SDS011;38661;53.152;5.846;2023-07-09T03:58:00;15.23;;;13.05;;
52786;SDS011;38661;53.152;5.846;2023-07-09T04:00:28;14.95;;;12.95;;
52786;SDS011;38661;53.152;5.846;2023-07-09T04:02:54;13.35;;;11.85;;
52786;SDS011;38661;53.152;5.846;2023-07-09T04:05:22;19.52;;;12.52;;
52786;SDS011;38661;53.152;5.846;2023-07-09T04:07:48;14.27;;;12.15;;
52786;SDS011;38661;53.152;5.846;2023-07-09T04:10:14;14.10;;;11.48;;
52786;SDS011;38661;53.152;5.846;2023-07-09T04:12:40;16.58;;;11.80;;
52786;SDS011;38661;53.152;5.846;2023-07-09T04:15:06;15.00;;;11.48;;
52786;SDS011;38661;53.152;5.846;2023-07-09T04:17:33;15.15;;;11.90;;
52786;SDS011;38661;53.152;5.846;2023-07-09T04:19:59;16.17;;;11.20;;
52786;SDS011;38661;53.152;5.846;2023-07-09T04:22:26;14.27;;;11.35;;
52786;SDS011;38661;53.152;5.846;2023-07-09T04:24:51;14.32;;;11.85;;
52786;SDS011;38661;53.152;5.846;2023-07-09T04:27:17;15.82;;;12.38;;
52786;SDS011;38661;53.152;5.846;2023-07-09T04:29:44;13.25;;;11.88;;
52786;SDS011;38661;53.152;5.846;2023-07-09T04:32:13;14.25;;;12.52;;
52786;SDS011;38661;53.152;5.846;2023-07-09T04:34:40;14.55;;;12.75;;
52786;SDS011;38661;53.152;5.846;2023-07-09T04:37:07;13.93;;;12.30;;
52786;SDS011;38661;53.152;5.846;2023-07-09T04:39:34;14.38;;;11.75;;
52786;SDS011;38661;53.152;5.846;2023-07-09T04:42:00;13.45;;;12.05;;
52786;SDS011;38661;53.152;5.846;2023-07-09T04:44:26;20.95;;;12.70;;
52786;SDS011;38661;53.152;5.846;2023-07-09T04:46:51;14.32;;;11.70;;
52786;SDS011;38661;53.152;5.846;2023-07-09T04:49:17;15.45;;;11.98;;
52786;SDS011;38661;53.152;5.846;2023-07-09T04:51:43;15.05;;;12.63;;
52786;SDS011;38661;53.152;5.846;2023-07-09T04:54:08;15.23;;;12.93;;
52786;SDS011;38661;53.152;5.846;2023-07-09T04:56:34;14.90;;;11.98;;
52786;SDS011;38661;53.152;5.846;2023-07-09T04:59:01;15.60;;;12.55;;
52786;SDS011;38661;53.152;5.846;2023-07-09T05:01:27;12.57;;;11.27;;
52786;SDS011;38661;53.152;5.846;2023-07-09T05:03:53;13.18;;;11.65;;
52786;SDS011;38661;53.152;5.846;2023-07-09T05:06:20;15.27;;;13.68;;
52786;SDS011;38661;53.152;5.846;2023-07-09T05:08:47;15.60;;;12.93;;
52786;SDS011;38661;53.152;5.846;2023-07-09T05:11:13;14.52;;;12.63;;
52786;SDS011;38661;53.152;5.846;2023-07-09T05:13:39;19.08;;;13.70;;
52786;SDS011;38661;53.152;5.846;2023-07-09T05:16:05;16.48;;;12.98;;
52786;SDS011;38661;53.152;5.846;2023-07-09T05:18:31;14.18;;;12.68;;
52786;SDS011;38661;53.152;5.846;2023-07-09T05:20:57;16.15;;;13.60;;
52786;SDS011;38661;53.152;5.846;2023-07-09T05:23:26;15.40;;;13.75;;
52786;SDS011;38661;53.152;5.846;2023-07-09T05:26:01;15.68;;;14.07;;
52786;SDS011;38661;53.152;5.846;2023-07-09T05:28:28;14.55;;;12.20;;
52786;SDS011;38661;53.152;5.846;2023-07-09T05:30:55;15.90;;;14.18;;
52786;SDS011;38661;53.152;5.846;2023-07-09T05:33:21;15.13;;;13.52;;
52786;SDS011;38661;53.152;5.846;2023-07-09T05:35:47;17.40;;;13.48;;
52786;SDS011;38661;53.152;5.846;2023-07-09T05:38:13;16.83;;;13.63;;
52786;SDS011;38661;53.152;5.846;2023-07-09T05:40:40;15.38;;;13.35;;
52786;SDS011;38661;53.152;5.846;2023-07-09T05:43:06;15.30;;;13.70;;
52786;SDS011;38661;53.152;5.846;2023-07-09T05:45:32;16.05;;;13.82;;
52786;SDS011;38661;53.152;5.846;2023-07-09T05:47:59;16.50;;;14.07;;
52786;SDS011;38661;53.152;5.846;2023-07-09T05:50:25;15.95;;;14.02;;
52786;SDS011;38661;53.152;5.846;2023-07-09T05:52:52;14.57;;;13.00;;
52786;SDS011;38661;53.152;5.846;2023-07-09T05:55:17;14.32;;;12.60;;
52786;SDS011;38661;53.152;5.846;2023-07-09T05:57:43;16.50;;;13.13;;
52786;SDS011;38661;53.152;5.846;2023-07-09T06:00:09;15.35;;;13.75;;
52786;SDS011;38661;53.152;5.846;2023-07-09T06:02:35;16.40;;;14.20;;
52786;SDS011;38661;53.152;5.846;2023-07-09T06:05:01;17.83;;;14.52;;
52786;SDS011;38661;53.152;5.846;2023-07-09T06:07:27;15.63;;;14.05;;
52786;SDS011;38661;53.152;5.846;2023-07-09T06:09:53;19.63;;;14.82;;
52786;SDS011;38661;53.152;5.846;2023-07-09T06:12:18;18.40;;;14.27;;
52786;SDS011;38661;53.152;5.846;2023-07-09T06:14:45;15.15;;;12.95;;
52786;SDS011;38661;53.152;5.846;2023-07-09T06:17:11;15.73;;;14.05;;
52786;SDS011;38661;53.152;5.846;2023-07-09T06:19:38;15.75;;;14.15;;
52786;SDS011;38661;53.152;5.846;2023-07-09T06:22:04;16.80;;;14.95;;
52786;SDS011;38661;53.152;5.846;2023-07-09T06:24:30;15.85;;;14.05;;
52786;SDS011;38661;53.152;5.846;2023-07-09T06:26:56;15.43;;;13.82;;
52786;SDS011;38661;53.152;5.846;2023-07-09T06:29:21;15.50;;;13.70;;
52786;SDS011;38661;53.152;5.846;2023-07-09T06:31:47;14.57;;;12.80;;
52786;SDS011;38661;53.152;5.846;2023-07-09T06:34:13;15.43;;;13.48;;
52786;SDS011;38661;53.152;5.846;2023-07-09T06:36:39;16.90;;;14.25;;
52786;SDS011;38661;53.152;5.846;2023-07-09T06:39:05;15.30;;;13.70;;
52786;SDS011;38661;53.152;5.846;2023-07-09T06:41:31;15.50;;;13.60;;
52786;SDS011;38661;53.152;5.846;2023-07-09T06:43:57;16.35;;;13.43;;
52786;SDS011;38661;53.152;5.846;2023-07-09T06:46:23;16.25;;;13.88;;
52786;SDS011;38661;53.152;5.846;2023-07-09T06:48:49;17.90;;;15.07;;
52786;SDS011;38661;53.152;5.846;2023-07-09T06:51:15;17.15;;;14.38;;
52786;SDS011;38661;53.152;5.846;2023-07-09T06:53:41;19.52;;;15.65;;
52786;SDS011;38661;53.152;5.846;2023-07-09T06:56:09;18.23;;;15.90;;
52786;SDS011;38661;53.152;5.846;2023-07-09T06:58:35;20.55;;;15.75;;
52786;SDS011;38661;53.152;5.846;2023-07-09T07:01:02;16.85;;;14.95;;
52786;SDS011;38661;53.152;5.846;2023-07-09T07:03:29;19.30;;;16.70;;
52786;SDS011;38661;53.152;5.846;2023-07-09T07:05:55;21.00;;;16.98;;
52786;SDS011;38661;53.152;5.846;2023-07-09T07:08:22;19.98;;;16.90;;
52786;SDS011;38661;53.152;5.846;2023-07-09T07:10:50;19.13;;;16.77;;
52786;SDS011;38661;53.152;5.846;2023-07-09T07:13:23;19.98;;;17.70;;
52786;SDS011;38661;53.152;5.846;2023-07-09T07:15:49;21.08;;;17.00;;
52786;SDS011;38661;53.152;5.846;2023-07-09T07:18:15;18.88;;;16.95;;
52786;SDS011;38661;53.152;5.846;2023-07-09T07:20:40;22.75;;;18.58;;
52786;SDS011;38661;53.152;5.846;2023-07-09T07:23:06;20.08;;;17.20;;
52786;SDS011;38661;53.152;5.846;2023-07-09T07:25:32;22.23;;;17.40;;
52786;SDS011;38661;53.152;5.846;2023-07-09T07:27:58;21.33;;;16.88;;
52786;SDS011;38661;53.152;5.846;2023-07-09T07:30:24;20.23;;;18.13;;
52786;SDS011;38661;53.152;5.846;2023-07-09T07:32:49;21.33;;;17.98;;
52786;SDS011;38661;53.152;5.846;2023-07-09T07:35:15;22.08;;;19.33;;
52786;SDS011;38661;53.152;5.846;2023-07-09T07:37:43;18.90;;;15.82;;
52786;SDS011;38661;53.152;5.846;2023-07-09T07:40:09;21.67;;;18.60;;
52786;SDS011;38661;53.152;5.846;2023-07-09T07:42:35;20.52;;;18.45;;
52786;SDS011;38661;53.152;5.846;2023-07-09T07:45:02;20.80;;;18.67;;
52786;SDS011;38661;53.152;5.846;2023-07-09T07:47:28;23.35;;;20.08;;
52786;SDS011;38661;53.152;5.846;2023-07-09T07:49:55;26.85;;;20.48;;
52786;SDS011;38661;53.152;5.846;2023-07-09T07:52:21;22.08;;;19.65;;
52786;SDS011;38661;53.152;5.846;2023-07-09T07:54:48;21.45;;;19.25;;
52786;SDS011;38661;53.152;5.846;2023-07-09T07:57:14;20.35;;;18.27;;
52786;SDS011;38661;53.152;5.846;2023-07-09T07:59:40;20.17;;;18.05;;
52786;SDS011;38661;53.152;5.846;2023-07-09T08:02:06;18.90;;;16.55;;
52786;SDS011;38661;53.152;5.846;2023-07-09T08:04:36;18.58;;;15.13;;
52786;SDS011;38661;53.152;5.846;2023-07-09T08:07:01;21.08;;;16.58;;
52786;SDS011;38661;53.152;5.846;2023-07-09T08:09:27;17.38;;;15.25;;
52786;SDS011;38661;53.152;5.846;2023-07-09T08:11:54;16.40;;;14.68;;
52786;SDS011;38661;53.152;5.846;2023-07-09T08:14:20;18.00;;;15.70;;
52786;SDS011;38661;53.152;5.846;2023-07-09T08:16:46;17.50;;;15.57;;
52786;SDS011;38661;53.152;5.846;2023-07-09T08:19:12;16.45;;;14.68;;
52786;SDS011;38661;53.152;5.846;2023-07-09T08:21:38;15.02;;;13.30;;
52786;SDS011;38661;53.152;5.846;2023-07-09T08:24:04;16.13;;;12.68;;
52786;SDS011;38661;53.152;5.846;2023-07-09T08:26:30;12.40;;;10.80;;
52786;SDS011;38661;53.152;5.846;2023-07-09T08:28:56;14.13;;;11.02;;
52786;SDS011;38661;53.152;5.846;2023-07-09T08:31:22;12.38;;;10.68;;
52786;SDS011;38661;53.152;5.846;2023-07-09T08:33:48;15.23;;;10.98;;
52786;SDS011;38661;53.152;5.846;2023-07-09T08:36:13;11.88;;;9.60;;
52786;SDS011;38661;53.152;5.846;2023-07-09T08:38:40;13.18;;;10.93;;
52786;SDS011;38661;53.152;5.846;2023-07-09T08:45:58;14.93;;;12.02;;
52786;SDS011;38661;53.152;5.846;2023-07-09T08:48:38;17.67;;;12.05;;
52786;SDS011;38661;53.152;5.846;2023-07-09T08:51:14;14.52;;;11.48;;
52786;SDS011;38661;53.152;5.846;2023-07-09T08:53:57;16.63;;;10.80;;
52786;SDS011;38661;53.152;5.846;2023-07-09T08:56:24;14.00;;;10.68;;
52786;SDS011;38661;53.152;5.846;2023-07-09T08:58:50;11.57;;;10.02;;
52786;SDS011;38661;53.152;5.846;2023-07-09T09:01:20;10.68;;;8.73;;
52786;SDS011;38661;53.152;5.846;2023-07-09T09:04:15;11.35;;;8.40;;
52786;SDS011;38661;53.152;5.846;2023-07-09T09:06:47;16.15;;;10.57;;
52786;SDS011;38661;53.152;5.846;2023-07-09T09:09:25;12.57;;;8.98;;
52786;SDS011;38661;53.152;5.846;2023-07-09T09:14:46;11.02;;;8.43;;
52786;SDS011;38661;53.152;5.846;2023-07-09T09:17:23;12.65;;;7.32;;
52786;SDS011;38661;53.152;5.846;2023-07-09T09:19:55;13.05;;;7.72;;
52786;SDS011;38661;53.152;5.846;2023-07-09T09:22:25;12.70;;;7.45;;
52786;SDS011;38661;53.152;5.846;2023-07-09T09:24:57;10.25;;;7.15;;
52786;SDS011;38661;53.152;5.846;2023-07-09T09:27:41;10.13;;;7.30;;
52786;SDS011;38661;53.152;5.846;2023-07-09T09:30:20;13.60;;;7.00;;
52786;SDS011;38661;53.152;5.846;2023-07-09T09:32:53;10.40;;;7.20;;
52786;SDS011;38661;53.152;5.846;2023-07-09T09:35:19;9.75;;;6.97;;
52786;SDS011;38661;53.152;5.846;2023-07-09T09:37:51;9.73;;;6.25;;
52786;SDS011;38661;53.152;5.846;2023-07-09T09:40:21;10.80;;;7.05;;
52786;SDS011;38661;53.152;5.846;2023-07-09T09:42:52;10.43;;;6.78;;
52786;SDS011;38661;53.152;5.846;2023-07-09T09:45:28;11.20;;;6.32;;
52786;SDS011;38661;53.152;5.846;2023-07-09T09:48:00;10.35;;;7.53;;
52786;SDS011;38661;53.152;5.846;2023-07-09T09:50:27;10.60;;;6.50;;
52786;SDS011;38661;53.152;5.846;2023-07-09T09:52:57;9.30;;;5.68;;
52786;SDS011;38661;53.152;5.846;2023-07-09T09:55:28;10.13;;;5.53;;
52786;SDS011;38661;53.152;5.846;2023-07-09T09:57:55;7.80;;;5.40;;
52786;SDS011;38661;53.152;5.846;2023-07-09T10:00:23;7.07;;;5.38;;
52786;SDS011;38661;53.152;5.846;2023-07-09T10:02:56;7.60;;;5.65;;
52786;SDS011;38661;53.152;5.846;2023-07-09T10:05:27;8.40;;;6.22;;
52786;SDS011;38661;53.152;5.846;2023-07-09T10:08:03;8.38;;;6.50;;
52786;SDS011;38661;53.152;5.846;2023-07-09T10:10:34;10.52;;;6.65;;
52786;SDS011;38661;53.152;5.846;2023-07-09T10:21:23;9.93;;;7.00;;
52786;SDS011;38661;53.152;5.846;2023-07-09T10:27:00;9.88;;;6.30;;
52786;SDS011;38661;53.152;5.846;2023-07-09T10:40:59;7.65;;;5.28;;
52786;SDS011;38661;53.152;5.846;2023-07-09T10:44:28;10.80;;;6.13;;
52786;SDS011;38661;53.152;5.846;2023-07-09T10:46:34;8.85;;;6.75;;
52786;SDS011;38661;53.152;5.846;2023-07-09T10:49:03;11.13;;;6.60;;
52786;SDS011;38661;53.152;5.846;2023-07-09T10:54:14;10.27;;;6.50;;
52786;SDS011;38661;53.152;5.846;2023-07-09T10:56:58;7.57;;;5.43;;
52786;SDS011;38661;53.152;5.846;2023-07-09T10:59:32;8.48;;;5.93;;
52786;SDS011;38661;53.152;5.846;2023-07-09T11:05:11;7.70;;;5.30;;
52786;SDS011;38661;53.152;5.846;2023-07-09T11:08:11;8.40;;;5.68;;
52786;SDS011;38661;53.152;5.846;2023-07-09T11:10:31;8.27;;;5.38;;
52786;SDS011;38661;53.152;5.846;2023-07-09T11:13:04;10.20;;;5.07;;
52786;SDS011;38661;53.152;5.846;2023-07-09T11:15:37;10.52;;;5.95;;
52786;SDS011;38661;53.152;5.846;2023-07-09T11:18:18;7.07;;;5.28;;
52786;SDS011;38661;53.152;5.846;2023-07-09T11:20:47;7.82;;;5.63;;
52786;SDS011;38661;53.152;5.846;2023-07-09T11:24:04;7.93;;;5.90;;
52786;SDS011;38661;53.152;5.846;2023-07-09T11:26:34;10.40;;;5.75;;
52786;SDS011;38661;53.152;5.846;2023-07-09T11:31:37;9.00;;;5.05;;
52786;SDS011;38661;53.152;5.846;2023-07-09T11:36:34;7.47;;;5.40;;
52786;SDS011;38661;53.152;5.846;2023-07-09T11:39:18;8.68;;;6.30;;
52786;SDS011;38661;53.152;5.846;2023-07-09T11:41:45;11.23;;;5.72;;
52786;SDS011;38661;53.152;5.846;2023-07-09T11:52:31;8.30;;;6.18;;
52786;SDS011;38661;53.152;5.846;2023-07-09T11:55:07;8.40;;;5.40;;
52786;SDS011;38661;53.152;5.846;2023-07-09T11:58:02;8.00;;;5.25;;
52786;SDS011;38661;53.152;5.846;2023-07-09T12:00:39;5.68;;;4.78;;
52786;SDS011;38661;53.152;5.846;2023-07-09T12:03:11;8.90;;;6.07;;
52786;SDS011;38661;53.152;5.846;2023-07-09T12:05:42;7.35;;;5.97;;
52786;SDS011;38661;53.152;5.846;2023-07-09T12:08:14;7.97;;;5.60;;
52786;SDS011;38661;53.152;5.846;2023-07-09T12:10:41;6.38;;;5.18;;
52786;SDS011;38661;53.152;5.846;2023-07-09T12:13:10;5.20;;;4.70;;
52786;SDS011;38661;53.152;5.846;2023-07-09T12:15:38;6.93;;;5.15;;
52786;SDS011;38661;53.152;5.846;2023-07-09T12:18:14;7.20;;;5.28;;
52786;SDS011;38661;53.152;5.846;2023-07-09T12:20:41;5.78;;;5.18;;
52786;SDS011;38661;53.152;5.846;2023-07-09T12:23:20;7.57;;;5.50;;
52786;SDS011;38661;53.152;5.846;2023-07-09T12:25:50;7.05;;;5.60;;
52786;SDS011;38661;53.152;5.846;2023-07-09T12:28:17;7.15;;;5.15;;
52786;SDS011;38661;53.152;5.846;2023-07-09T12:30:49;8.27;;;5.47;;
52786;SDS011;38661;53.152;5.846;2023-07-09T12:33:17;7.07;;;5.35;;
52786;SDS011;38661;53.152;5.846;2023-07-09T12:35:44;9.82;;;5.18;;
52786;SDS011;38661;53.152;5.846;2023-07-09T12:38:21;9.73;;;5.50;;
52786;SDS011;38661;53.152;5.846;2023-07-09T12:40:48;7.28;;;4.82;;
52786;SDS011;38661;53.152;5.846;2023-07-09T12:43:17;8.10;;;5.15;;
52786;SDS011;38661;53.152;5.846;2023-07-09T12:46:04;7.68;;;4.90;;
52786;SDS011;38661;53.152;5.846;2023-07-09T12:48:29;6.18;;;4.80;;
52786;SDS011;38661;53.152;5.846;2023-07-09T12:50:56;6.75;;;5.15;;
52786;SDS011;38661;53.152;5.846;2023-07-09T12:53:23;7.47;;;4.78;;
52786;SDS011;38661;53.152;5.846;2023-07-09T12:55:51;10.65;;;4.93;;
52786;SDS011;38661;53.152;5.846;2023-07-09T12:58:22;5.20;;;4.70;;
52786;SDS011;38661;53.152;5.846;2023-07-09T13:00:51;7.55;;;5.20;;
52786;SDS011;38661;53.152;5.846;2023-07-09T13:03:20;9.38;;;5.38;;
52786;SDS011;38661;53.152;5.846;2023-07-09T13:05:53;7.28;;;5.15;;
52786;SDS011;38661;53.152;5.846;2023-07-09T13:08:27;6.82;;;4.95;;
52786;SDS011;38661;53.152;5.846;2023-07-09T13:10:55;7.25;;;4.97;;
52786;SDS011;38661;53.152;5.846;2023-07-09T13:13:22;6.93;;;4.97;;
52786;SDS011;38661;53.152;5.846;2023-07-09T13:15:51;8.57;;;5.40;;
52786;SDS011;38661;53.152;5.846;2023-07-09T13:18:22;8.88;;;5.60;;
52786;SDS011;38661;53.152;5.846;2023-07-09T13:20:53;7.03;;;5.50;;
52786;SDS011;38661;53.152;5.846;2023-07-09T13:23:21;6.93;;;5.53;;
52786;SDS011;38661;53.152;5.846;2023-07-09T13:25:49;6.60;;;5.05;;
52786;SDS011;38661;53.152;5.846;2023-07-09T13:28:19;6.28;;;4.93;;
52786;SDS011;38661;53.152;5.846;2023-07-09T13:31:00;6.05;;;5.25;;
52786;SDS011;38661;53.152;5.846;2023-07-09T13:33:55;6.03;;;4.93;;
52786;SDS011;38661;53.152;5.846;2023-07-09T13:36:23;7.95;;;5.22;;
52786;SDS011;38661;53.152;5.846;2023-07-09T13:38:49;7.15;;;5.43;;
52786;SDS011;38661;53.152;5.846;2023-07-09T13:41:17;7.97;;;5.70;;
52786;SDS011;38661;53.152;5.846;2023-07-09T13:43:47;6.70;;;5.20;;
52786;SDS011;38661;53.152;5.846;2023-07-09T13:46:13;6.30;;;5.13;;
52786;SDS011;38661;53.152;5.846;2023-07-09T13:48:40;8.80;;;6.07;;
52786;SDS011;38661;53.152;5.846;2023-07-09T13:51:18;8.57;;;5.50;;
52786;SDS011;38661;53.152;5.846;2023-07-09T13:53:48;8.10;;;5.32;;
52786;SDS011;38661;53.152;5.846;2023-07-09T13:56:16;6.72;;;5.18;;
52786;SDS011;38661;53.152;5.846;2023-07-09T13:58:42;7.40;;;5.43;;
52786;SDS011;38661;53.152;5.846;2023-07-09T14:01:13;10.48;;;5.35;;
52786;SDS011;38661;53.152;5.846;2023-07-09T14:03:40;9.30;;;5.45;;
52786;SDS011;38661;53.152;5.846;2023-07-09T14:06:09;6.15;;;5.15;;
52786;SDS011;38661;53.152;5.846;2023-07-09T14:08:38;6.40;;;4.68;;
52786;SDS011;38661;53.152;5.846;2023-07-09T14:11:10;9.63;;;5.22;;
52786;SDS011;38661;53.152;5.846;2023-07-09T14:13:37;6.55;;;4.88;;
52786;SDS011;38661;53.152;5.846;2023-07-09T14:16:03;7.55;;;5.15;;
52786;SDS011;38661;53.152;5.846;2023-07-09T14:18:29;8.82;;;5.30;;
52786;SDS011;38661;53.152;5.846;2023-07-09T14:20:55;7.20;;;4.97;;
52786;SDS011;38661;53.152;5.846;2023-07-09T14:23:21;8.02;;;4.60;;
52786;SDS011;38661;53.152;5.846;2023-07-09T14:25:47;6.95;;;4.53;;
52786;SDS011;38661;53.152;5.846;2023-07-09T14:28:14;6.28;;;4.60;;
52786;SDS011;38661;53.152;5.846;2023-07-09T14:30:45;7.47;;;4.28;;
52786;SDS011;38661;53.152;5.846;2023-07-09T14:33:19;15.90;;;4.93;;
52786;SDS011;38661;53.152;5.846;2023-07-09T14:35:46;6.97;;;3.85;;
52786;SDS011;38661;53.152;5.846;2023-07-09T14:38:23;5.25;;;3.92;;
52786;SDS011;38661;53.152;5.846;2023-07-09T14:40:54;6.50;;;3.65;;
52786;SDS011;38661;53.152;5.846;2023-07-09T14:43:40;8.55;;;4.32;;
52786;SDS011;38661;53.152;5.846;2023-07-09T14:46:06;8.70;;;4.40;;
52786;SDS011;38661;53.152;5.846;2023-07-09T14:48:32;16.30;;;5.72;;
52786;SDS011;38661;53.152;5.846;2023-07-09T14:50:57;14.15;;;6.10;;
52786;SDS011;38661;53.152;5.846;2023-07-09T14:53:24;8.43;;;5.05;;
52786;SDS011;38661;53.152;5.846;2023-07-09T14:55:52;8.52;;;4.68;;
52786;SDS011;38661;53.152;5.846;2023-07-09T14:58:19;15.60;;;6.00;;
52786;SDS011;38661;53.152;5.846;2023-07-09T15:00:46;16.77;;;8.10;;
52786;SDS011;38661;53.152;5.846;2023-07-09T15:03:20;16.88;;;7.00;;
52786;SDS011;38661;53.152;5.846;2023-07-09T15:05:48;15.98;;;6.25;;
52786;SDS011;38661;53.152;5.846;2023-07-09T15:08:15;19.70;;;6.82;;
52786;SDS011;38661;53.152;5.846;2023-07-09T15:10:43;19.52;;;7.47;;
52786;SDS011;38661;53.152;5.846;2023-07-09T15:13:18;26.27;;;8.98;;
52786;SDS011;38661;53.152;5.846;2023-07-09T15:16:04;24.90;;;9.93;;
52786;SDS011;38661;53.152;5.846;2023-07-09T15:18:31;19.38;;;8.70;;
52786;SDS011;38661;53.152;5.846;2023-07-09T15:21:00;17.30;;;7.05;;
52786;SDS011;38661;53.152;5.846;2023-07-09T15:23:27;12.85;;;6.30;;
52786;SDS011;38661;53.152;5.846;2023-07-09T15:25:54;16.77;;;7.47;;
52786;SDS011;38661;53.152;5.846;2023-07-09T15:28:21;14.63;;;7.22;;
52786;SDS011;38661;53.152;5.846;2023-07-09T15:30:47;12.23;;;5.47;;